Time;durP1;ratioP1;P1;durP2;ratioP2;P2;SDS_P1;SDS_P2;PMS_P1;PMS_P2;Temp;Humidity;BMP_temperature;BMP_pressure;BME280_temperature;BME280_humidity;BME280_pressure;Samples;Min_cycle;Max_cycle;Signal;HPM_P1;HPM_P2
2023/07/14 00:02:55;;;;;;;3.00;1.87;;;13.40;20.10;;;;;;8309363;28;20217;-66
2023/07/14 00:06:56;;;;;;;1.70;1.60;;;13.30;44.80;;;;;;8310903;28;20305;-64
2023/07/14 00:10:57;;;;;;;1.83;1.57;;;13.20;73.10;;;;;;8312558;28;20183;-64
2023/07/14 00:14:57;;;;;;;2.10;1.90;;;13.10;96.50;;;;;;8307066;28;20193;-65
2023/07/14 00:18:59;;;;;;;3.07;2.50;;;13.10;99.90;;;;;;8307576;28;20183;-65
2023/07/14 00:23:00;;;;;;;2.37;2.17;;;13.00;99.90;;;;;;8311194;28;20217;-65
2023/07/14 00:27:00;;;;;;;2.93;2.40;;;13.00;99.90;;;;;;8313854;28;20179;-69
2023/07/14 00:31:01;;;;;;;2.87;2.47;;;13.00;99.90;;;;;;8311806;28;20187;-65
2023/07/14 00:35:17;;;;;;;2.13;1.90;;;13.00;99.90;;;;;;8312261;28;20220;-63
2023/07/14 00:39:18;;;;;;;2.73;2.30;;;13.10;99.90;;;;;;8313932;28;20221;-66
2023/07/14 00:43:29;;;;;;;2.63;2.10;;;13.10;99.90;;;;;;8309818;28;20241;-65
2023/07/14 00:47:30;;;;;;;3.73;2.00;;;13.10;99.90;;;;;;8313179;28;20229;-64
2023/07/14 00:51:34;;;;;;;5.90;2.47;;;13.20;99.90;;;;;;8317728;28;20187;-64
2023/07/14 00:55:50;;;;;;;4.40;2.37;;;13.40;99.90;;;;;;8319742;28;20182;-66
2023/07/14 00:59:54;;;;;;;2.73;2.50;;;13.50;91.30;;;;;;8330849;28;20191;-66
2023/07/14 01:03:56;;;;;;;3.10;2.80;;;13.60;50.90;;;;;;8332823;28;20250;-65
2023/07/14 01:07:57;;;;;;;6.83;2.90;;;13.80;24.10;;;;;;8314464;28;20209;-68
2023/07/14 01:12:03;;;;;;;4.30;2.60;;;13.90;2.70;;;;;;8317962;28;20186;-67
2023/07/14 01:16:04;;;;;;;2.83;2.30;;;14.00;1.00;;;;;;8333597;28;20212;-66
2023/07/14 01:20:09;;;;;;;4.10;2.60;;;14.00;1.00;;;;;;8317050;28;20175;-65
2023/07/14 01:24:37;;;;;;;3.80;2.00;;;13.90;1.00;;;;;;8330051;28;20210;-65
2023/07/14 01:28:38;;;;;;;4.33;2.40;;;13.80;1.00;;;;;;8318008;28;20206;-66
2023/07/14 01:32:44;;;;;;;2.33;1.80;;;13.70;1.00;;;;;;8314799;28;20190;-65
2023/07/14 01:36:48;;;;;;;3.63;2.70;;;13.60;1.00;;;;;;8328076;28;20222;-70
2023/07/14 01:40:50;;;;;;;3.47;2.30;;;13.60;8.80;;;;;;8316467;28;20301;-68
2023/07/14 01:44:51;;;;;;;3.37;2.30;;;13.50;5.30;;;;;;8318214;28;20193;-69
2023/07/14 01:48:58;;;;;;;3.37;2.27;;;13.50;1.00;;;;;;8317405;28;20177;-68
2023/07/14 01:53:13;;;;;;;2.53;2.33;;;13.50;1.00;;;;;;8313066;28;20202;-65
2023/07/14 01:57:17;;;;;;;3.33;2.40;;;13.50;6.70;;;;;;8306835;28;20190;-64
2023/07/14 02:01:21;;;;;;;3.97;2.70;;;13.50;10.10;;;;;;8310653;28;20225;-68
2023/07/14 02:05:40;;;;;;;3.77;2.30;;;13.40;12.40;;;;;;8316126;28;20246;-65
2023/07/14 02:09:42;;;;;;;3.27;2.30;;;13.40;13.70;;;;;;8315266;28;20255;-65
2023/07/14 02:13:44;;;;;;;2.20;2.00;;;13.30;16.50;;;;;;8315948;28;20193;-65
2023/07/14 02:17:49;;;;;;;3.63;2.50;;;13.20;28.50;;;;;;8330635;28;20205;-65
2023/07/14 02:21:51;;;;;;;3.93;2.77;;;13.20;42.50;;;;;;8319151;28;20292;-65
2023/07/14 02:26:30;;;;;;;2.53;2.00;;;13.20;60.40;;;;;;8315973;28;20248;-64
2023/07/14 02:30:33;;;;;;;3.20;2.37;;;13.20;61.50;;;;;;8314429;28;20306;-66
2023/07/14 02:34:42;;;;;;;3.07;2.50;;;13.30;56.00;;;;;;8328897;28;20209;-66
2023/07/14 02:38:42;;;;;;;3.30;2.43;;;13.30;37.90;;;;;;8317316;28;20187;-66
2023/07/14 02:42:43;;;;;;;6.53;2.93;;;13.40;25.90;;;;;;8314198;28;20224;-68
2023/07/14 02:46:51;;;;;;;3.27;2.77;;;13.40;24.30;;;;;;8317501;28;20273;-66
2023/07/14 02:50:52;;;;;;;3.00;2.47;;;13.30;27.50;;;;;;8329164;28;20191;-64
2023/07/14 02:54:56;;;;;;;3.03;2.27;;;13.20;31.10;;;;;;8313055;28;20277;-65
2023/07/14 02:58:57;;;;;;;2.73;2.53;;;13.20;49.80;;;;;;8314842;28;20217;-65
2023/07/14 03:02:58;;;;;;;5.33;2.73;;;13.10;56.50;;;;;;8314430;28;20313;-65
2023/07/14 03:06:59;;;;;;;2.47;2.27;;;13.20;65.60;;;;;;8312143;28;20186;-66
2023/07/14 03:11:00;;;;;;;4.47;2.73;;;13.20;55.80;;;;;;8302040;28;20240;-65
2023/07/14 03:15:04;;;;;;;2.83;2.60;;;13.30;42.20;;;;;;8315173;28;20256;-69
2023/07/14 03:19:04;;;;;;;3.90;2.93;;;13.30;38.80;;;;;;8310040;28;20254;-66
2023/07/14 03:23:05;;;;;;;2.90;2.67;;;13.60;22.20;;;;;;8307968;28;20213;-66
2023/07/14 03:27:06;;;;;;;2.57;2.20;;;14.10;1.00;;;;;;8329853;28;20190;-65
2023/07/14 03:31:08;;;;;;;2.70;2.50;;;14.40;1.00;;;;;;8310260;28;20196;-66
2023/07/14 03:35:09;;;;;;;2.20;2.00;;;14.70;1.00;;;;;;8312510;28;20200;-65
2023/07/14 03:39:24;;;;;;;3.50;2.13;;;15.00;1.00;;;;;;8312966;28;20183;-66
2023/07/14 03:43:25;;;;;;;3.90;2.40;;;15.30;1.00;;;;;;8315393;28;20265;-67
2023/07/14 03:47:26;;;;;;;3.40;2.40;;;15.60;1.00;;;;;;8329178;28;20182;-67
2023/07/14 03:51:30;;;;;;;2.97;2.33;;;15.50;1.00;;;;;;8312206;28;20174;-65
2023/07/14 03:55:32;;;;;;;4.57;2.67;;;15.20;1.00;;;;;;8314309;28;20200;-67
2023/07/14 03:59:33;;;;;;;3.93;2.23;;;15.10;1.00;;;;;;8312729;28;20178;-66
2023/07/14 04:03:34;;;;;;;3.43;2.30;;;15.10;1.00;;;;;;8315398;28;20237;-67
2023/07/14 04:07:40;;;;;;;3.60;2.53;;;15.20;1.00;;;;;;8313959;28;20183;-67
2023/07/14 04:11:41;;;;;;;5.17;2.50;;;15.70;1.00;;;;;;8310680;28;20291;-66
2023/07/14 04:15:42;;;;;;;3.47;2.27;;;16.20;1.00;;;;;;8313404;28;20179;-67
2023/07/14 04:19:43;;;;;;;5.60;2.30;;;16.20;1.00;;;;;;8307403;28;20191;-68
2023/07/14 04:23:43;;;;;;;5.40;2.57;;;16.10;1.00;;;;;;8312819;28;20210;-68
2023/07/14 04:27:45;;;;;;;5.00;2.40;;;16.00;1.00;;;;;;8318288;28;20274;-67
2023/07/14 04:31:46;;;;;;;7.10;2.90;;;15.90;1.00;;;;;;8320948;28;20179;-68
2023/07/14 04:35:51;;;;;;;3.07;2.03;;;15.90;1.00;;;;;;8311663;28;20237;-68
2023/07/14 04:39:51;;;;;;;3.90;2.60;;;15.80;1.00;;;;;;8319617;28;20190;-67
2023/07/14 04:43:53;;;;;;;5.17;2.83;;;15.80;1.00;;;;;;8320555;28;20217;-67
2023/07/14 04:47:54;;;;;;;3.03;2.20;;;15.80;1.00;;;;;;8315066;28;20237;-66
2023/07/14 04:51:55;;;;;;;2.73;2.40;;;16.00;1.00;;;;;;8316586;28;20178;-67
2023/07/14 04:55:56;;;;;;;2.80;2.43;;;16.20;1.00;;;;;;8313210;28;20186;-67
2023/07/14 04:59:58;;;;;;;3.43;2.60;;;16.50;1.00;;;;;;8318759;28;20233;-67
2023/07/14 05:03:59;;;;;;;3.23;2.13;;;16.60;1.00;;;;;;8315227;28;20238;-67
2023/07/14 05:08:01;;;;;;;2.73;2.40;;;16.70;1.00;;;;;;8311734;28;20179;-67
2023/07/14 05:12:01;;;;;;;2.90;2.30;;;16.90;1.00;;;;;;8316993;28;20234;-68
2023/07/14 05:16:02;;;;;;;5.67;3.07;;;16.80;1.00;;;;;;8317789;28;20189;-68
2023/07/14 05:20:12;;;;;;;4.60;2.80;;;16.90;1.00;;;;;;8315126;28;20187;-68
2023/07/14 05:24:13;;;;;;;2.80;1.90;;;17.20;1.00;;;;;;8314341;28;20213;-67
2023/07/14 05:28:14;;;;;;;4.63;2.40;;;17.50;1.00;;;;;;8317653;28;20187;-68
2023/07/14 05:32:16;;;;;;;5.37;2.70;;;17.80;1.00;;;;;;8319719;28;20193;-68
2023/07/14 05:36:20;;;;;;;3.77;2.13;;;17.80;1.00;;;;;;8318628;28;20190;-68
2023/07/14 05:40:21;;;;;;;6.67;2.60;;;18.10;1.00;;;;;;8315440;28;20273;-67
2023/07/14 05:44:22;;;;;;;3.63;2.50;;;18.20;1.00;;;;;;8314034;28;20214;-68
2023/07/14 05:48:23;;;;;;;2.47;2.00;;;18.60;1.00;;;;;;8317178;28;20179;-68
2023/07/14 05:52:24;;;;;;;4.63;2.03;;;18.90;1.00;;;;;;8319218;28;20190;-67
2023/07/14 05:56:25;;;;;;;5.57;2.53;;;19.10;1.00;;;;;;8334528;28;20190;-67
2023/07/14 06:00:26;;;;;;;4.90;2.30;;;19.30;1.00;;;;;;8316138;28;20297;-67
2023/07/14 06:04:33;;;;;;;5.40;2.20;;;19.60;1.00;;;;;;8316281;28;20248;-68
2023/07/14 06:08:34;;;;;;;5.20;2.10;;;19.70;1.00;;;;;;8329124;28;20185;-67
2023/07/14 06:12:35;;;;;;;3.13;1.97;;;20.00;1.00;;;;;;8316735;28;20240;-68
2023/07/14 06:16:37;;;;;;;3.77;2.10;;;20.30;1.00;;;;;;8313994;28;20295;-69
2023/07/14 06:20:37;;;;;;;4.03;2.13;;;20.40;1.00;;;;;;8330972;28;20195;-70
2023/07/14 06:24:38;;;;;;;4.50;2.67;;;20.50;1.00;;;;;;8318592;28;20183;-66
2023/07/14 06:28:41;;;;;;;3.80;2.30;;;20.80;99.90;;;;;;8314950;28;20193;-68
2023/07/14 06:32:42;;;;;;;4.20;2.13;;;21.00;99.90;;;;;;8317529;28;20273;-67
2023/07/14 06:36:43;;;;;;;4.10;2.20;;;20.70;99.90;;;;;;8313425;28;20300;-69
2023/07/14 06:40:43;;;;;;;3.87;1.80;;;20.50;99.90;;;;;;8312566;28;20265;-70
2023/07/14 06:44:45;;;;;;;2.60;2.00;;;20.50;99.90;;;;;;8312085;28;20206;-68
2023/07/14 06:48:46;;;;;;;3.43;1.60;;;20.70;99.90;;;;;;8317178;28;20231;-68
2023/07/14 06:52:47;;;;;;;3.57;1.80;;;20.50;99.90;;;;;;8313243;28;20183;-68
2023/07/14 06:56:48;;;;;;;4.40;1.83;;;20.70;99.90;;;;;;8314797;28;20190;-68
2023/07/14 07:00:52;;;;;;;4.30;1.40;;;20.80;99.90;;;;;;8313421;28;20199;-69
2023/07/14 07:04:53;;;;;;;5.27;1.83;;;20.60;99.90;;;;;;8315982;28;20206;-67
2023/07/14 07:08:54;;;;;;;3.73;1.77;;;20.50;99.90;;;;;;8307022;28;20223;-68
2023/07/14 07:12:55;;;;;;;1.63;1.43;;;20.70;99.90;;;;;;8320990;28;20179;-69
2023/07/14 07:16:56;;;;;;;3.43;1.77;;;21.00;99.90;;;;;;8316752;28;20193;-67
2023/07/14 07:20:57;;;;;;;3.70;1.63;;;21.10;99.90;;;;;;8314341;28;20199;-67
2023/07/14 07:25:01;;;;;;;3.23;1.97;;;21.50;99.90;;;;;;8313249;28;20198;-68
2023/07/14 07:29:03;;;;;;;2.27;1.90;;;21.70;99.90;;;;;;8317609;28;20260;-70
2023/07/14 07:33:03;;;;;;;1.73;1.50;;;20.90;99.90;;;;;;8316872;28;20241;-67
2023/07/14 07:37:04;;;;;;;4.63;2.00;;;20.70;99.90;;;;;;8314977;28;20187;-70
2023/07/14 07:41:05;;;;;;;3.03;1.70;;;20.80;99.90;;;;;;8313750;28;20206;-70
2023/07/14 07:45:07;;;;;;;2.07;1.50;;;20.80;99.90;;;;;;8313701;28;20182;-68
2023/07/14 07:49:08;;;;;;;7.23;1.77;;;20.90;99.90;;;;;;8313934;28;20186;-68
2023/07/14 07:53:09;;;;;;;2.57;1.70;;;20.70;99.90;;;;;;8311420;28;20194;-68
2023/07/14 07:57:10;;;;;;;2.43;1.80;;;20.70;99.90;;;;;;8313305;28;20302;-69
2023/07/14 08:01:21;;;;;;;3.57;1.87;;;20.60;99.90;;;;;;8312474;28;20210;-68
2023/07/14 08:05:24;;;;;;;3.23;1.73;;;20.90;99.90;;;;;;8329311;28;20233;-67
2023/07/14 08:09:25;;;;;;;2.30;1.80;;;21.20;99.90;;;;;;8311559;28;20182;-69
2023/07/14 08:13:28;;;;;;;2.70;1.70;;;21.60;99.90;;;;;;8308876;28;20190;-67
2023/07/14 08:17:31;;;;;;;3.13;2.10;;;21.60;99.90;;;;;;8313394;28;20245;-67
2023/07/14 08:21:32;;;;;;;3.80;1.90;;;21.90;99.90;;;;;;8311749;28;20211;-65
2023/07/14 08:25:33;;;;;;;2.40;1.73;;;22.40;99.90;;;;;;8311993;28;20205;-67
2023/07/14 08:29:34;;;;;;;2.17;1.70;;;22.50;99.90;;;;;;8310586;28;20276;-66
2023/07/14 08:33:36;;;;;;;4.83;1.80;;;22.50;99.90;;;;;;8310088;28;20186;-66
2023/07/14 08:37:37;;;;;;;3.57;1.73;;;22.60;99.90;;;;;;8302518;28;20241;-68
2023/07/14 08:41:46;;;;;;;3.47;1.80;;;22.80;99.90;;;;;;8313218;28;20273;-67
2023/07/14 08:46:03;;;;;;;3.13;1.93;;;22.90;99.90;;;;;;8313221;28;20178;-66
2023/07/14 08:50:12;;;;;;;3.97;1.90;;;22.90;99.90;;;;;;8309614;28;20183;-65
2023/07/14 08:54:17;;;;;;;1.37;1.20;;;23.00;99.90;;;;;;8310990;28;20194;-66
2023/07/14 08:58:24;;;;;;;2.60;1.60;;;23.40;99.90;;;;;;8306960;28;20250;-66
2023/07/14 09:02:37;;;;;;;2.13;1.50;;;23.80;99.90;;;;;;8315613;28;20202;-68
2023/07/14 09:06:39;;;;;;;2.60;1.43;;;24.20;99.90;;;;;;8323332;28;20197;-67
2023/07/14 09:10:46;;;;;;;4.67;1.40;;;24.40;99.90;;;;;;8317626;28;20182;-66
2023/07/14 09:15:02;;;;;;;2.00;1.70;;;24.50;99.90;;;;;;8314390;28;20178;-69
2023/07/14 09:19:17;;;;;;;2.60;1.73;;;24.80;99.90;;;;;;8316564;28;20182;-67
2023/07/14 09:23:21;;;;;;;2.15;1.52;;;25.20;99.90;;;;;;8317672;28;20197;-67
2023/07/14 09:27:26;;;;;;;4.00;1.80;;;25.50;99.90;;;;;;8316417;28;20278;-69
2023/07/14 09:31:48;;;;;;;2.10;1.45;;;25.70;99.90;;;;;;8313515;28;20245;-67
2023/07/14 09:35:50;;;;;;;2.33;1.40;;;25.90;99.90;;;;;;8329312;28;20249;-69
2023/07/14 09:40:03;;;;;;;3.08;1.70;;;25.90;99.90;;;;;;8314700;28;20376;-68
2023/07/14 09:44:04;;;;;;;3.10;1.70;;;25.80;99.90;;;;;;8316961;28;20300;-67
2023/07/14 09:48:26;;;;;;;2.60;1.40;;;25.90;99.90;;;;;;8312821;28;20280;-67
2023/07/14 09:52:28;;;;;;;3.92;1.75;;;25.90;99.90;;;;;;8331845;28;20210;-67
2023/07/14 09:56:32;;;;;;;2.22;1.70;;;25.80;99.90;;;;;;8318176;28;20186;-67
2023/07/14 10:00:39;;;;;;;3.13;1.80;;;25.40;99.90;;;;;;8313830;28;20229;-67
2023/07/14 10:04:48;;;;;;;4.20;1.42;;;25.20;99.90;;;;;;8310557;28;20248;-67
2023/07/14 10:08:56;;;;;;;3.85;1.67;;;25.20;99.90;;;;;;8309586;28;20187;-67
2023/07/14 10:12:57;;;;;;;2.65;1.58;;;25.30;99.90;;;;;;8316152;28;20260;-68
2023/07/14 10:16:59;;;;;;;3.33;1.60;;;25.60;99.90;;;;;;8309478;28;20209;-66
2023/07/14 10:21:11;;;;;;;3.35;1.58;;;26.00;99.90;;;;;;8307733;28;20265;-65
2023/07/14 10:25:18;;;;;;;1.90;1.45;;;25.80;99.90;;;;;;8313057;28;20310;-68
2023/07/14 10:29:21;;;;;;;2.78;1.73;;;25.40;99.90;;;;;;8315628;28;20186;-67
2023/07/14 10:34:11;;;;;;;2.60;1.80;;;25.10;99.90;;;;;;8314819;28;20206;-69
2023/07/14 10:38:34;;;;;;;2.20;1.57;;;25.00;99.90;;;;;;8291486;28;20187;-68
2023/07/14 10:42:40;;;;;;;2.40;1.50;;;25.00;99.90;;;;;;8314455;28;20269;-67
2023/07/14 10:46:50;;;;;;;1.50;1.20;;;25.00;99.90;;;;;;8328119;28;20195;-67
2023/07/14 10:50:56;;;;;;;3.87;1.47;;;25.10;99.90;;;;;;8304607;28;20209;-68
2023/07/14 10:55:04;;;;;;;2.30;1.30;;;25.10;99.90;;;;;;8314510;28;20178;-69
2023/07/14 10:59:15;;;;;;;3.38;1.23;;;25.20;99.90;;;;;;8330647;28;20182;-68
2023/07/14 11:03:48;;;;;;;1.85;1.13;;;25.40;99.90;;;;;;8324119;28;20226;-68
2023/07/14 11:07:52;;;;;;;1.95;1.00;;;25.60;99.90;;;;;;8303878;28;20236;-67
2023/07/14 11:12:22;;;;;;;2.95;1.50;;;25.80;99.90;;;;;;8304770;28;20245;-68
2023/07/14 11:16:27;;;;;;;3.05;1.35;;;25.90;99.90;;;;;;8312005;28;20174;-70
2023/07/14 11:20:35;;;;;;;4.28;1.40;;;26.00;99.90;;;;;;8314191;28;20182;-69
2023/07/14 11:24:58;;;;;;;3.22;1.20;;;26.00;99.90;;;;;;8311954;28;20198;-65
2023/07/14 11:29:15;;;;;;;4.03;1.27;;;26.20;99.90;;;;;;8311987;28;20193;-66
2023/07/14 11:33:31;;;;;;;2.25;1.23;;;26.30;99.90;;;;;;8309739;28;20213;-70
2023/07/14 11:38:07;;;;;;;2.58;0.98;;;26.30;99.90;;;;;;8327177;28;20185;-67
2023/07/14 11:42:30;;;;;;;1.77;1.10;;;26.50;99.90;;;;;;8266898;28;20314;-66
2023/07/14 11:46:31;;;;;;;2.40;1.10;;;26.80;99.90;;;;;;8309403;28;20194;-68
2023/07/14 11:50:38;;;;;;;3.80;1.50;;;26.90;99.90;;;;;;8310960;28;20194;-66
2023/07/14 11:54:57;;;;;;;1.75;1.13;;;26.40;99.90;;;;;;8315605;28;20211;-67
2023/07/14 11:59:26;;;;;;;2.42;1.63;;;26.40;99.90;;;;;;8325633;28;20183;-66
2023/07/14 12:03:38;;;;;;;2.83;1.08;;;26.90;99.90;;;;;;8310461;28;20313;-68
2023/07/14 12:08:05;;;;;;;3.60;1.50;;;27.20;99.90;;;;;;8311457;28;20205;-70
2023/07/14 12:12:08;;;;;;;1.52;1.30;;;27.40;99.90;;;;;;8315907;28;20242;-68
2023/07/14 12:16:18;;;;;;;2.85;1.50;;;27.60;99.90;;;;;;8326703;28;20190;-68
2023/07/14 12:20:30;;;;;;;2.28;1.17;;;27.80;99.90;;;;;;8328678;28;20186;-69
2023/07/14 12:24:47;;;;;;;3.67;1.40;;;28.00;99.90;;;;;;8310533;28;20191;-69
2023/07/14 12:28:48;;;;;;;2.63;1.23;;;28.20;99.90;;;;;;8328168;28;20194;-70
2023/07/14 12:32:55;;;;;;;2.83;1.23;;;28.50;99.90;;;;;;8312159;28;20419;-70
2023/07/14 12:37:00;;;;;;;2.17;1.02;;;27.70;99.90;;;;;;8326292;28;20240;-70
2023/07/14 12:41:03;;;;;;;3.33;1.40;;;27.80;99.90;;;;;;8330435;28;20285;-70
2023/07/14 12:45:05;;;;;;;2.05;1.20;;;28.10;99.90;;;;;;8327751;28;20182;-72
2023/07/14 12:49:27;;;;;;;3.45;1.20;;;28.50;99.90;;;;;;8319172;28;20190;-68
2023/07/14 12:53:31;;;;;;;2.88;1.33;;;29.10;99.90;;;;;;8335034;28;20214;-67
2023/07/14 12:57:36;;;;;;;4.13;1.45;;;29.30;99.90;;;;;;8318597;28;20191;-70
2023/07/14 13:01:39;;;;;;;3.42;1.05;;;29.60;99.90;;;;;;8318692;28;20198;-67
2023/07/14 13:05:45;;;;;;;3.08;1.10;;;29.30;99.90;;;;;;8315972;28;20225;-71
2023/07/14 13:10:24;;;;;;;2.17;1.20;;;29.30;99.90;;;;;;8318524;28;20178;-69
2023/07/14 13:14:31;;;;;;;1.92;1.20;;;29.50;99.90;;;;;;8232320;28;20254;-71
2023/07/14 13:18:36;;;;;;;2.15;1.20;;;29.70;99.90;;;;;;8290202;28;20212;-67
2023/07/14 13:22:37;;;;;;;2.60;1.10;;;29.80;99.90;;;;;;8319427;28;20211;-71
2023/07/14 13:27:11;;;;;;;3.00;1.35;;;30.00;99.90;;;;;;8316533;28;20198;-67
2023/07/14 13:31:26;;;;;;;3.15;1.35;;;30.20;99.90;;;;;;8317216;28;20207;-68
2023/07/14 13:35:32;;;;;;;3.67;1.27;;;30.40;99.90;;;;;;8314112;28;20175;-68
2023/07/14 13:39:36;;;;;;;1.70;1.05;;;30.30;99.90;;;;;;8331692;28;20191;-71
2023/07/14 13:43:37;;;;;;;2.60;1.10;;;30.20;99.90;;;;;;8331904;28;20189;-69
2023/07/14 13:47:45;;;;;;;1.33;1.10;;;29.90;99.90;;;;;;8316909;28;20189;-69
2023/07/14 13:51:46;;;;;;;2.35;1.08;;;29.90;99.90;;;;;;8332803;28;20245;-69
2023/07/14 13:55:47;;;;;;;2.15;1.00;;;30.10;99.90;;;;;;8317445;28;20190;-71
2023/07/14 13:59:48;;;;;;;2.55;1.35;;;30.20;99.90;;;;;;8314249;28;20183;-71
2023/07/14 14:03:53;;;;;;;2.33;0.95;;;30.00;99.90;;;;;;8316377;28;20256;-69
2023/07/14 14:07:55;;;;;;;2.70;1.30;;;29.70;99.90;;;;;;8331107;28;20185;-69
2023/07/14 14:11:55;;;;;;;2.95;1.17;;;29.50;99.90;;;;;;8330183;28;20227;-68
2023/07/14 14:15:56;;;;;;;2.08;1.20;;;29.60;99.90;;;;;;8314465;28;20201;-68
2023/07/14 14:19:58;;;;;;;1.90;1.45;;;29.00;99.90;;;;;;8314645;28;20219;-70
2023/07/14 14:23:59;;;;;;;1.92;0.90;;;28.50;99.90;;;;;;8314584;28;20217;-68
2023/07/14 14:28:00;;;;;;;2.45;1.10;;;28.50;99.90;;;;;;8313569;28;20213;-67
2023/07/14 14:32:01;;;;;;;4.38;1.40;;;28.70;99.90;;;;;;8312860;28;20228;-69
2023/07/14 14:36:02;;;;;;;2.00;1.20;;;28.70;99.90;;;;;;8314813;28;20228;-67
2023/07/14 14:40:12;;;;;;;2.47;1.20;;;28.20;99.90;;;;;;8313992;28;20228;-68
2023/07/14 14:44:22;;;;;;;3.03;0.98;;;28.20;99.90;;;;;;8310895;28;20182;-68
2023/07/14 14:48:31;;;;;;;1.52;1.10;;;28.60;99.90;;;;;;8329203;28;20287;-67
2023/07/14 14:52:32;;;;;;;2.75;1.50;;;29.10;99.90;;;;;;8324457;28;20214;-68
2023/07/14 14:56:42;;;;;;;2.88;1.35;;;29.00;99.90;;;;;;8312840;28;20197;-69
2023/07/14 15:00:54;;;;;;;3.80;1.27;;;28.40;99.90;;;;;;8311467;28;20264;-67
2023/07/14 15:04:55;;;;;;;1.63;1.10;;;28.10;99.90;;;;;;8310400;28;20520;-68
2023/07/14 15:08:56;;;;;;;2.38;1.10;;;28.50;99.90;;;;;;8314276;28;20269;-67
2023/07/14 15:12:57;;;;;;;1.20;1.08;;;29.10;99.90;;;;;;8311151;28;20229;-68
2023/07/14 15:17:00;;;;;;;3.38;1.10;;;29.40;99.90;;;;;;8313755;28;20206;-68
2023/07/14 15:21:03;;;;;;;2.22;1.50;;;29.50;99.90;;;;;;8314579;28;20186;-68
2023/07/14 15:25:04;;;;;;;1.85;1.40;;;29.50;99.90;;;;;;8309486;28;20175;-68
2023/07/14 15:29:05;;;;;;;4.88;1.60;;;29.50;99.90;;;;;;8310440;28;20195;-67
2023/07/14 15:33:13;;;;;;;3.97;2.10;;;29.40;99.90;;;;;;8327381;28;20238;-69
2023/07/14 15:37:14;;;;;;;1.67;1.40;;;29.20;99.90;;;;;;8309607;28;20186;-66
2023/07/14 15:41:23;;;;;;;4.30;1.77;;;29.10;99.90;;;;;;8310750;28;20256;-67
2023/07/14 15:45:26;;;;;;;3.30;1.80;;;29.00;99.90;;;;;;8306430;28;20278;-64
2023/07/14 15:49:27;;;;;;;2.00;1.17;;;28.90;99.90;;;;;;8310752;28;20271;-65
2023/07/14 15:53:38;;;;;;;1.80;1.35;;;28.70;99.90;;;;;;8309707;28;20216;-64
2023/07/14 15:57:39;;;;;;;3.33;1.40;;;28.70;99.90;;;;;;8326591;28;20214;-65
2023/07/14 16:01:40;;;;;;;7.80;4.05;;;28.50;99.90;;;;;;8309743;28;20193;-65
2023/07/14 16:05:41;;;;;;;10.35;3.92;;;28.40;99.90;;;;;;8309067;28;20274;-66
2023/07/14 16:09:42;;;;;;;4.78;2.33;;;28.20;99.90;;;;;;8307971;28;20186;-65
2023/07/14 16:13:45;;;;;;;3.10;1.88;;;27.90;99.90;;;;;;8313899;28;20214;-66
2023/07/14 16:17:46;;;;;;;2.03;1.50;;;27.60;99.90;;;;;;8313786;28;20183;-64
2023/07/14 16:21:50;;;;;;;3.85;1.83;;;27.40;99.90;;;;;;8302598;28;20198;-65
2023/07/14 16:25:51;;;;;;;2.47;1.50;;;27.40;99.90;;;;;;8314219;28;20178;-65
2023/07/14 16:29:55;;;;;;;4.97;2.28;;;27.30;99.90;;;;;;8314527;28;20276;-66
2023/07/14 16:33:56;;;;;;;3.95;1.80;;;27.40;99.90;;;;;;8335215;28;20198;-66
2023/07/14 16:38:01;;;;;;;2.20;1.40;;;27.50;99.90;;;;;;8320723;28;20182;-65
2023/07/14 16:42:02;;;;;;;2.72;1.10;;;27.60;99.90;;;;;;8313469;28;20286;-67
2023/07/14 16:46:03;;;;;;;1.88;1.17;;;27.60;99.90;;;;;;8323585;28;20190;-67
2023/07/14 16:50:09;;;;;;;2.40;1.35;;;27.40;99.90;;;;;;8318667;28;20285;-66
2023/07/14 16:54:23;;;;;;;4.38;1.50;;;27.20;99.90;;;;;;8313282;28;20242;-66
2023/07/14 16:58:26;;;;;;;5.65;1.50;;;27.30;99.90;;;;;;8329859;28;20187;-68
2023/07/14 17:02:27;;;;;;;2.67;1.73;;;27.50;99.90;;;;;;8315717;28;20281;-66
2023/07/14 17:06:28;;;;;;;2.67;1.40;;;27.50;99.90;;;;;;8314728;28;20210;-65
2023/07/14 17:10:31;;;;;;;3.35;1.27;;;27.40;99.90;;;;;;8313398;28;20209;-64
2023/07/14 17:14:32;;;;;;;1.88;1.48;;;27.30;99.90;;;;;;8331928;28;20216;-65
2023/07/14 17:18:33;;;;;;;1.90;1.15;;;27.30;99.90;;;;;;8316259;28;20186;-66
2023/07/14 17:22:36;;;;;;;2.75;1.40;;;27.30;99.90;;;;;;8315547;28;20229;-68
2023/07/14 17:26:36;;;;;;;1.63;1.23;;;27.30;99.90;;;;;;8318281;28;20217;-68
2023/07/14 17:30:37;;;;;;;3.58;1.33;;;27.70;99.90;;;;;;8315447;28;20186;-67
2023/07/14 17:34:38;;;;;;;2.25;1.27;;;28.50;99.90;;;;;;8313418;28;20214;-68
2023/07/14 17:38:39;;;;;;;2.95;1.17;;;29.50;99.90;;;;;;8315394;28;20188;-68
2023/07/14 17:42:40;;;;;;;3.05;1.63;;;30.20;99.90;;;;;;8315459;28;20187;-69
2023/07/14 17:46:42;;;;;;;1.92;1.05;;;30.70;99.90;;;;;;8317750;28;20188;-68
2023/07/14 17:50:47;;;;;;;3.72;1.65;;;31.20;99.90;;;;;;8317053;28;20189;-68
2023/07/14 17:54:47;;;;;;;2.05;1.40;;;31.10;99.90;;;;;;8316841;28;20206;-68
2023/07/14 17:58:48;;;;;;;3.50;1.40;;;31.20;99.90;;;;;;8313471;28;20194;-70
2023/07/14 18:03:00;;;;;;;2.83;1.40;;;31.30;99.90;;;;;;8320721;28;20201;-72
2023/07/14 18:07:01;;;;;;;1.90;1.30;;;31.20;99.90;;;;;;8303600;28;20282;-69
2023/07/14 18:11:25;;;;;;;5.80;1.70;;;31.00;99.90;;;;;;8318107;28;20183;-69
2023/07/14 18:15:29;;;;;;;3.05;1.55;;;30.80;99.90;;;;;;8328553;28;20286;-67
2023/07/14 18:19:30;;;;;;;3.30;1.80;;;30.80;99.90;;;;;;8316684;28;20178;-67
2023/07/14 18:23:32;;;;;;;2.88;1.35;;;30.70;99.90;;;;;;8313542;28;20178;-67
2023/07/14 18:27:33;;;;;;;2.08;1.40;;;30.70;99.90;;;;;;8314661;28;20186;-66
2023/07/14 18:31:35;;;;;;;3.65;1.80;;;30.40;99.90;;;;;;8316457;28;20209;-66
2023/07/14 18:35:36;;;;;;;3.08;1.67;;;30.00;99.90;;;;;;8311777;28;20183;-66
2023/07/14 18:39:39;;;;;;;2.70;1.63;;;29.70;99.90;;;;;;8315026;28;20178;-66
2023/07/14 18:43:40;;;;;;;2.00;1.65;;;29.10;99.90;;;;;;8327027;28;20202;-66
2023/07/14 18:47:42;;;;;;;2.42;1.50;;;28.50;99.90;;;;;;8311806;28;20249;-66
2023/07/14 18:51:43;;;;;;;2.35;1.40;;;27.80;99.90;;;;;;8327271;28;20253;-66
2023/07/14 18:55:46;;;;;;;4.90;1.70;;;27.00;99.90;;;;;;8329270;28;20181;-66
2023/07/14 18:59:48;;;;;;;2.60;1.67;;;26.20;99.90;;;;;;8315539;28;20175;-67
2023/07/14 19:03:51;;;;;;;2.93;1.67;;;25.40;99.90;;;;;;8326915;28;20322;-66
2023/07/14 19:07:52;;;;;;;3.37;2.13;;;24.60;99.90;;;;;;8325518;28;20211;-66
2023/07/14 19:11:57;;;;;;;2.10;1.57;;;24.00;99.90;;;;;;8311455;28;20199;-65
2023/07/14 19:15:59;;;;;;;3.90;1.70;;;23.40;99.90;;;;;;8312580;28;20174;-66
2023/07/14 19:20:00;;;;;;;2.13;1.70;;;22.90;99.90;;;;;;8314687;28;20248;-65
2023/07/14 19:24:01;;;;;;;3.17;2.30;;;22.40;99.90;;;;;;8330107;28;20209;-65
2023/07/14 19:28:13;;;;;;;3.93;2.40;;;22.10;99.90;;;;;;8326219;28;20220;-66
2023/07/14 19:32:15;;;;;;;3.90;2.53;;;21.70;99.90;;;;;;8327757;28;20209;-65
2023/07/14 19:36:17;;;;;;;2.53;2.17;;;21.40;99.90;;;;;;8312552;28;20213;-64
2023/07/14 19:40:21;;;;;;;3.57;2.33;;;21.10;99.90;;;;;;8311187;28;20183;-62
2023/07/14 19:44:23;;;;;;;4.60;2.13;;;20.90;99.90;;;;;;8312806;28;20205;-62
2023/07/14 19:48:25;;;;;;;2.10;1.80;;;20.70;99.90;;;;;;8327167;28;20266;-64
2023/07/14 19:52:26;;;;;;;3.13;2.07;;;20.50;99.90;;;;;;8308110;28;20214;-64
2023/07/14 19:56:31;;;;;;;4.07;2.50;;;20.30;99.90;;;;;;8312826;28;20182;-63
2023/07/14 20:00:33;;;;;;;3.70;2.30;;;20.10;99.90;;;;;;8313084;28;20191;-64
2023/07/14 20:04:35;;;;;;;3.90;2.37;;;19.90;99.90;;;;;;8310275;28;20230;-64
2023/07/14 20:08:42;;;;;;;2.80;2.40;;;19.70;99.90;;;;;;8310656;28;20194;-63
2023/07/14 20:12:42;;;;;;;3.07;2.30;;;19.60;99.90;;;;;;8325492;28;20210;-66
2023/07/14 20:16:43;;;;;;;4.17;2.47;;;19.40;99.90;;;;;;8312973;28;20185;-64
2023/07/14 20:20:45;;;;;;;4.73;2.70;;;19.30;99.90;;;;;;8307984;28;20190;-64
2023/07/14 20:24:46;;;;;;;2.60;2.20;;;19.20;1.00;;;;;;8310926;28;20228;-64
2023/07/14 20:28:48;;;;;;;4.20;2.53;;;19.10;1.00;;;;;;8307791;28;20198;-64
2023/07/14 20:32:51;;;;;;;3.53;2.30;;;19.00;1.00;;;;;;8309819;28;20255;-65
2023/07/14 20:36:52;;;;;;;5.93;2.80;;;19.00;1.00;;;;;;8309918;28;20335;-65
2023/07/14 20:40:58;;;;;;;4.23;2.77;;;18.90;1.00;;;;;;8311546;28;20183;-64
2023/07/14 20:44:59;;;;;;;4.20;2.30;;;18.80;1.00;;;;;;8324016;28;20202;-65
2023/07/14 20:49:01;;;;;;;3.83;2.50;;;18.70;1.00;;;;;;8307883;28;20253;-65
2023/07/14 20:53:02;;;;;;;4.83;2.47;;;18.70;1.00;;;;;;8306760;28;20216;-66
2023/07/14 20:57:13;;;;;;;3.10;2.40;;;18.60;1.00;;;;;;8312734;28;20182;-65
2023/07/14 21:01:17;;;;;;;2.93;2.50;;;18.50;1.00;;;;;;8310893;28;20195;-63
2023/07/14 21:05:21;;;;;;;3.27;2.40;;;18.40;1.00;;;;;;8311929;28;20253;-63
2023/07/14 21:09:22;;;;;;;3.90;2.33;;;18.30;1.00;;;;;;8315515;28;20186;-64
2023/07/14 21:13:26;;;;;;;3.87;2.40;;;18.20;1.00;;;;;;8315049;28;20320;-63
2023/07/14 21:17:26;;;;;;;4.70;2.30;;;18.00;1.00;;;;;;8315740;28;20198;-64